Flight Track Log - Related Links

Times and Time Zones

All times are in EDT time to prevent confusion due to time zone crossing. See the KAP927 flight status page for this flight to view local times or setup timezone preferences in your user account.

Time Position Orientation Groundspeed Altitude Reporting Facility
EDT Latitude Longitude Course Direction KTS MPH feet Rate Location/Type
Fri 06:34:42 PM 42.7903 -73.8122 341° North 116 133 1,400  Level Boston Center
Fri 06:35:49 PM 42.8275 -73.8300 341° North 123 142 2,200 709 Climbing Boston Center
Fri 06:36:49 PM 42.8542 -73.8561 324° Northwest 120 138 2,900 626 Climbing Boston Center
Fri 06:37:44 PM 42.8811 -73.8767 331° Northwest 121 139 3,400 569 Climbing Boston Center
Fri 06:38:45 PM 42.9100 -73.9028 326° Northwest 125 144 4,000 567 Climbing Boston Center
Fri 06:39:51 PM 42.9428 -73.9319 327° Northwest 127 146 4,600 520 Climbing Boston Center
Fri 06:40:52 PM 42.9739 -73.9611 326° Northwest 135 155 5,100 393 Climbing Boston Center
Fri 06:41:53 PM 43.0089 -73.9903 329° Northwest 151 174 5,400 375 Climbing Boston Center
Fri 06:43:00 PM 43.0458 -74.0225 327° Northwest 142 163 5,900 472 Climbing Boston Center
Fri 06:44:00 PM 43.0789 -74.0489 330° Northwest 136 157 6,400 425 Climbing Boston Center
Fri 06:45:07 PM 43.1158 -74.0842 325° Northwest 139 160 6,800 422 Climbing Boston Center
Fri 06:46:08 PM 43.1489 -74.1078 332° Northwest 140 161 7,300 433 Climbing Boston Center
Fri 06:46:44 PM 43.1675 -74.1225 330° Northwest 142 163 7,500 375 Climbing Boston Center
Fri 06:47:44 PM 43.1983 -74.1489 328° Northwest 142 163 7,900 400 Climbing Boston Center
Fri 06:48:44 PM 43.2353 -74.1786 330° Northwest 142 163 8,300 300 Climbing Boston Center
Fri 06:49:44 PM 43.2661 -74.2078 325° Northwest 142 163 8,500 100 Climbing Boston Center
Fri 06:50:44 PM 43.3094 -74.2433 329° Northwest 155 178 8,500  Level Boston Center
Fri 06:51:44 PM 43.3444 -74.2731 328° Northwest 160 184 8,500  Level Boston Center
Fri 06:52:44 PM 43.3875 -74.3114 327° Northwest 165 190 8,500  Level Boston Center
Fri 06:53:44 PM 43.4203 -74.3411 327° Northwest 165 190 8,500  Level Boston Center
Fri 06:54:44 PM 43.4553 -74.3708 328° Northwest 159 183 8,500  Level Boston Center
Fri 06:55:44 PM 43.4903 -74.4033 326° Northwest 159 183 8,500  Level Boston Center
Fri 06:56:44 PM 43.5250 -74.4331 328° Northwest 154 177 8,500  Level Boston Center
Fri 06:57:44 PM 43.5619 -74.4631 330° Northwest 154 177 8,500  Level Boston Center
Fri 06:58:44 PM 43.5969 -74.4928 328° Northwest 154 177 8,500 -50 Level Boston Center
Fri 06:59:44 PM 43.6319 -74.5228 328° Northwest 154 177 8,400  Descending Boston Center
Fri 07:00:44 PM 43.6667 -74.5556 326° Northwest 149 171 8,500 -100 Climbing Boston Center
Fri 07:01:44 PM 43.7036 -74.5856 330° Northwest 149 171 8,200 -250 Descending Boston Center
Fri 07:02:44 PM 43.7406 -74.6183 327° Northwest 149 171 8,000 -250 Descending Boston Center
Fri 07:03:44 PM 43.7817 -74.6486 332° Northwest 154 177 7,700 -250 Descending Boston Center
Fri 07:04:44 PM 43.8206 -74.6817 328° Northwest 160 184 7,500 -200 Descending Boston Center
Fri 07:05:44 PM 43.8594 -74.7178 326° Northwest 165 190 7,300 -300 Descending Boston Center
Fri 07:06:44 PM 43.8983 -74.7508 329° Northwest 165 190 6,900 -350 Descending Boston Center
Fri 07:07:44 PM 43.9372 -74.7869 326° Northwest 165 190 6,600 -200 Descending Boston Center
Fri 07:08:44 PM 43.9742 -74.8203 327° Northwest 165 190 6,500 -50 Descending Boston Center
Fri 07:09:44 PM 44.0089 -74.8533 326° Northwest 165 190 6,500  Level Boston Center
Fri 07:10:44 PM 44.0436 -74.8836 328° Northwest 160 184 6,500 -50 Level Boston Center
Fri 07:11:44 PM 44.0783 -74.9139 328° Northwest 155 178 6,400 -50 Descending Boston Center
Fri 07:12:44 PM 44.1111 -74.9472 324° Northwest 150 173 6,400  Level Boston Center
Fri 07:13:44 PM 44.1458 -74.9747 330° Northwest 150 173 6,400 -150 Level Boston Center
Fri 07:14:44 PM 44.1806 -75.0081 325° Northwest 150 173 6,100 -250 Descending Boston Center
Fri 07:15:44 PM 44.2172 -75.0414 327° Northwest 150 173 5,900 -250 Descending Boston Center
Fri 07:16:44 PM 44.2561 -75.0750 328° Northwest 156 180 5,600 -350 Descending Boston Center
Fri 07:17:44 PM 44.2950 -75.1117 326° Northwest 162 186 5,200 -450 Descending Boston Center
Fri 07:18:44 PM 44.3358 -75.1425 332° Northwest 162 186 4,700 -500 Descending Boston Center
Fri 07:19:44 PM 44.3747 -75.1789 326° Northwest 167 192 4,200 -500 Descending Boston Center
Fri 07:20:44 PM 44.4156 -75.2100 331° Northwest 167 192 3,700 -400 Descending Boston Center
Fri 07:21:44 PM 44.4544 -75.2408 330° Northwest 167 192 3,400 -250 Descending Boston Center
Fri 07:22:44 PM 44.4931 -75.2747 328° Northwest 162 186 3,200 -300 Descending Boston Center
Fri 07:23:44 PM 44.5319 -75.3058 330° Northwest 162 186 2,800 -400 Descending Boston Center

Login

Don't have an account? Register now (free) for customized features, flight alerts, and more!